Nohic — FAB5240 — position and weather

sailwx.info

Track history (hours):
 
Tides and Currents Weather Stations Pressure Air Temp Water Temp Dewpoint Dewpoint Depression Visibility Wind Speed Wind Dir Waves Ship Positions

Nohic

Last reported at 2017-Sep-20 15:41 UTC. Time now 2017-Sep-21 12:24 UTC.
Position N 47°39' W 003°12'.

Length 12 m; draft 2 m.

Type: High speed craft. MMSI: 227211130.

Date/timePositionNaut miles runAvg speedWind from/ knotsBaromVisibWave heightAir tempDewpointWater temp
2017-Sep-20 15:41N 47°39' W 003°12'1 7.6
2017-Sep-20 15:30N 47°39' W 003°14'714.4
2017-Sep-20 15:01N 47°44' W 003°22'8 7.9
2017-Sep-20 14:01N 47°39' W 003°13'1 0.0
2017-Sep-19 19:34N 47°39' W 003°12'0 0.0
2017-Sep-19 19:31N 47°39' W 003°12'0 0.0
2017-Sep-19 12:08N 47°39' W 003°12'0 0.0
2017-Sep-19 12:01N 47°39' W 003°12'510.8
2017-Sep-19 11:30N 47°34' W 003°14'0 0.8
2017-Sep-19 11:00N 47°34' W 003°14'5 9.1
2017-Sep-19 10:30N 47°38' W 003°12'1 0.0
2017-Sep-17 15:06N 47°39' W 003°12'0 0.4
2017-Sep-17 15:00N 47°39' W 003°12'0 0.5
2017-Sep-17 14:30N 47°39' W 003°12'0 0.6
2017-Sep-17 14:01N 47°39' W 003°12'0 0.0
2017-Sep-17 13:30N 47°39' W 003°12'1 2.7
2017-Sep-17 13:00N 47°38' W 003°13'1 0.4
2017-Sep-17 09:25N 47°40' W 003°12'2 4.2
2017-Sep-17 09:00N 47°38' W 003°13'2 3.3
2017-Sep-17 08:30N 47°39' W 003°12'0 0.0
2017-Sep-16 13:38N 47°39' W 003°12'0 0.6
2017-Sep-16 13:30N 47°39' W 003°13'2 3.2
2017-Sep-16 13:00N 47°38' W 003°13'2 0.1
2017-Sep-15 11:56N 47°39' W 003°12'1 1.2
2017-Sep-15 11:30N 47°39' W 003°13'1 0.0
2017-Sep-14 13:01N 47°39' W 003°12'0 0.1
2017-Sep-14 13:00N 47°39' W 003°12'0 0.5
2017-Sep-14 12:30N 47°40' W 003°13'0 0.1
2017-Sep-14 08:03N 47°39' W 003°12'0 0.1
2017-Sep-14 08:00N 47°39' W 003°12'0 0.3
2017-Sep-14 07:30N 47°39' W 003°12'0 0.4
2017-Sep-14 07:00N 47°39' W 003°13'0 0.1
2017-Sep-14 06:30N 47°39' W 003°12'  
Track history (hours):
 
Tides and Currents Weather Stations Pressure Air Temp Water Temp Dewpoint Dewpoint Depression Visibility Wind Speed Wind Dir Waves Ship Positions

Nohic

Last reported at 2017-Sep-20 15:41 UTC. Time now 2017-Sep-21 12:24 UTC.
Position N 47°39' W 003°12'.

Length 12 m; draft 2 m.

Type: High speed craft. MMSI: 227211130.

Date/timePositionNaut miles runAvg speedWind from/ knotsBaromVisibWave heightAir tempDewpointWater temp
2017-Sep-20 15:41N 47°39' W 003°12'1 7.6
2017-Sep-20 15:30N 47°39' W 003°14'714.4
2017-Sep-20 15:01N 47°44' W 003°22'8 7.9
2017-Sep-20 14:01N 47°39' W 003°13'1 0.0
2017-Sep-19 19:34N 47°39' W 003°12'0 0.0
2017-Sep-19 19:31N 47°39' W 003°12'0 0.0
2017-Sep-19 12:08N 47°39' W 003°12'0 0.0
2017-Sep-19 12:01N 47°39' W 003°12'510.8
2017-Sep-19 11:30N 47°34' W 003°14'0 0.8
2017-Sep-19 11:00N 47°34' W 003°14'5 9.1
2017-Sep-19 10:30N 47°38' W 003°12'1 0.0
2017-Sep-17 15:06N 47°39' W 003°12'0 0.4
2017-Sep-17 15:00N 47°39' W 003°12'0 0.5
2017-Sep-17 14:30N 47°39' W 003°12'0 0.6
2017-Sep-17 14:01N 47°39' W 003°12'0 0.0
2017-Sep-17 13:30N 47°39' W 003°12'1 2.7
2017-Sep-17 13:00N 47°38' W 003°13'1 0.4
2017-Sep-17 09:25N 47°40' W 003°12'2 4.2
2017-Sep-17 09:00N 47°38' W 003°13'2 3.3
2017-Sep-17 08:30N 47°39' W 003°12'0 0.0
2017-Sep-16 13:38N 47°39' W 003°12'0 0.6
2017-Sep-16 13:30N 47°39' W 003°13'2 3.2
2017-Sep-16 13:00N 47°38' W 003°13'2 0.1
2017-Sep-15 11:56N 47°39' W 003°12'1 1.2
2017-Sep-15 11:30N 47°39' W 003°13'1 0.0
2017-Sep-14 13:01N 47°39' W 003°12'0 0.1
2017-Sep-14 13:00N 47°39' W 003°12'0 0.5
2017-Sep-14 12:30N 47°40' W 003°13'0 0.1
2017-Sep-14 08:03N 47°39' W 003°12'0 0.1
2017-Sep-14 08:00N 47°39' W 003°12'0 0.3
2017-Sep-14 07:30N 47°39' W 003°12'0 0.4
2017-Sep-14 07:00N 47°39' W 003°13'0 0.1
2017-Sep-14 06:30N 47°39' W 003°12'  

Dump ship's entire track history